Time;durP1;ratioP1;P1;durP2;ratioP2;P2;SDS_P1;SDS_P2;PMS_P1;PMS_P2;Temp;Humidity;BMP_temperature;BMP_pressure;BME280_temperature;BME280_humidity;BME280_pressure;Samples;Min_cycle;Max_cycle;Signal;HPM_P1;HPM_P2
2023/07/11 00:00:20;;;;;;;1.40;0.90;;;;;;;;;;7391491;19;20133;-87
2023/07/11 00:02:48;;;;;;;1.42;1.17;;;;;;;;;;7389766;19;20143;-86
2023/07/11 00:05:16;;;;;;;1.00;1.00;;;;;;;;;;7390979;19;20216;-87
2023/07/11 00:07:43;;;;;;;3.15;1.17;;;;;;;;;;7388957;19;20157;-87
2023/07/11 00:10:13;;;;;;;1.05;1.02;;;;;;;;;;7390169;19;20144;-87
2023/07/11 00:12:40;;;;;;;1.23;1.13;;;;;;;;;;7389935;19;20131;-87
2023/07/11 00:15:09;;;;;;;1.20;1.20;;;;;;;;;;7387262;19;20132;-87
2023/07/11 00:17:36;;;;;;;2.78;1.60;;;;;;;;;;7385350;19;20169;-87
2023/07/11 00:20:04;;;;;;;1.10;1.10;;;;;;;;;;7387596;19;20153;-87
2023/07/11 00:22:34;;;;;;;2.35;1.60;;;;;;;;;;7386968;19;20594;-87
2023/07/11 00:25:01;;;;;;;0.98;0.98;;;;;;;;;;7389368;19;20141;-87
2023/07/11 00:27:28;;;;;;;2.53;1.08;;;;;;;;;;7385845;19;20180;-87
2023/07/11 00:29:54;;;;;;;1.13;1.08;;;;;;;;;;7389898;19;20140;-87
2023/07/11 00:32:22;;;;;;;1.20;1.20;;;;;;;;;;7388020;19;20147;-88
2023/07/11 00:34:48;;;;;;;1.25;1.25;;;;;;;;;;7387045;19;20141;-87
2023/07/11 00:37:15;;;;;;;0.95;0.95;;;;;;;;;;7384489;19;20149;-87
2023/07/11 00:39:42;;;;;;;1.95;1.42;;;;;;;;;;7388153;19;20146;-87
2023/07/11 00:42:09;;;;;;;1.58;1.10;;;;;;;;;;7395671;19;20189;-87
2023/07/11 00:44:50;;;;;;;1.02;1.02;;;;;;;;;;7395400;19;20143;-87
2023/07/11 00:47:17;;;;;;;1.50;1.42;;;;;;;;;;7394045;19;20149;-86
2023/07/11 00:49:45;;;;;;;1.85;1.40;;;;;;;;;;7396205;19;20140;-87
2023/07/11 00:52:13;;;;;;;1.00;1.00;;;;;;;;;;7394742;19;20492;-87
2023/07/11 00:54:40;;;;;;;1.50;1.40;;;;;;;;;;7394328;19;20129;-87
2023/07/11 00:57:08;;;;;;;1.17;1.17;;;;;;;;;;7391040;19;20236;-86
2023/07/11 00:59:35;;;;;;;1.58;1.23;;;;;;;;;;7398118;19;20148;-86
2023/07/11 01:02:08;;;;;;;1.77;1.35;;;;;;;;;;7405612;19;20144;-87
2023/07/11 01:04:36;;;;;;;1.40;1.30;;;;;;;;;;7423302;19;20129;-87
2023/07/11 01:07:04;;;;;;;2.28;1.48;;;;;;;;;;7426084;19;20164;-87
2023/07/11 01:09:30;;;;;;;1.10;1.00;;;;;;;;;;7420592;19;20137;-87
2023/07/11 01:12:01;;;;;;;3.30;1.77;;;;;;;;;;7393251;19;20141;-86
2023/07/11 01:14:31;;;;;;;1.15;1.15;;;;;;;;;;7391042;19;20147;-86
2023/07/11 01:16:58;;;;;;;0.80;0.80;;;;;;;;;;7389870;19;20196;-87
2023/07/11 01:19:25;;;;;;;1.52;1.42;;;;;;;;;;7394633;19;20137;-87
2023/07/11 01:21:52;;;;;;;1.23;1.23;;;;;;;;;;7392824;19;20154;-87
2023/07/11 01:24:19;;;;;;;1.40;1.23;;;;;;;;;;7392427;19;20129;-87
2023/07/11 01:26:45;;;;;;;1.67;1.58;;;;;;;;;;7392237;19;20156;-86
2023/07/11 01:29:12;;;;;;;2.25;1.13;;;;;;;;;;7393130;19;20148;-86
2023/07/11 01:31:39;;;;;;;0.88;0.88;;;;;;;;;;7392619;19;20133;-86
2023/07/11 01:34:07;;;;;;;1.45;1.35;;;;;;;;;;7395234;19;20153;-86
2023/07/11 01:36:34;;;;;;;0.60;0.60;;;;;;;;;;7390986;19;20155;-86
2023/07/11 01:39:00;;;;;;;1.77;1.15;;;;;;;;;;7393265;19;20141;-86
2023/07/11 01:41:27;;;;;;;1.17;1.17;;;;;;;;;;7392946;19;20136;-87
2023/07/11 01:43:54;;;;;;;1.20;1.20;;;;;;;;;;7393442;19;20151;-86
2023/07/11 01:46:20;;;;;;;0.98;0.98;;;;;;;;;;7393509;19;20213;-86
2023/07/11 01:48:48;;;;;;;1.67;1.58;;;;;;;;;;7395326;19;20160;-87
2023/07/11 01:51:15;;;;;;;0.93;0.93;;;;;;;;;;7392417;19;20617;-85
2023/07/11 01:53:42;;;;;;;2.13;1.35;;;;;;;;;;7389014;19;20205;-86
2023/07/11 01:56:09;;;;;;;0.80;0.80;;;;;;;;;;7392120;19;20148;-86
2023/07/11 01:58:35;;;;;;;1.15;1.00;;;;;;;;;;7394946;19;20144;-86
2023/07/11 02:01:02;;;;;;;1.00;1.00;;;;;;;;;;7392923;19;20125;-86
2023/07/11 02:03:29;;;;;;;1.80;1.70;;;;;;;;;;7391367;19;20154;-86
2023/07/11 02:05:55;;;;;;;1.70;1.65;;;;;;;;;;7390627;19;20221;-86
2023/07/11 02:08:22;;;;;;;1.23;1.23;;;;;;;;;;7389098;19;20135;-86
2023/07/11 02:10:49;;;;;;;0.93;0.93;;;;;;;;;;7391284;19;20162;-86
2023/07/11 02:13:15;;;;;;;1.38;1.27;;;;;;;;;;7391675;19;20196;-86
2023/07/11 02:15:42;;;;;;;2.40;1.10;;;;;;;;;;7389770;19;20172;-86
2023/07/11 02:18:09;;;;;;;1.17;1.13;;;;;;;;;;7388482;19;20721;-86
2023/07/11 02:20:40;;;;;;;1.40;1.20;;;;;;;;;;7391706;19;20136;-86
2023/07/11 02:23:07;;;;;;;1.17;1.17;;;;;;;;;;7392088;19;20148;-87
2023/07/11 02:25:34;;;;;;;0.75;0.75;;;;;;;;;;7392376;19;20224;-86
2023/07/11 02:28:00;;;;;;;1.10;1.00;;;;;;;;;;7390256;19;20183;-86
2023/07/11 02:30:27;;;;;;;1.25;1.25;;;;;;;;;;7393283;19;20133;-86
2023/07/11 02:32:54;;;;;;;1.55;1.45;;;;;;;;;;7388533;19;20137;-86
2023/07/11 02:35:20;;;;;;;1.17;1.17;;;;;;;;;;7391210;19;20193;-86
2023/07/11 02:37:47;;;;;;;1.88;1.48;;;;;;;;;;7390982;19;20165;-87
2023/07/11 02:40:14;;;;;;;1.30;1.20;;;;;;;;;;7392119;19;20233;-86
2023/07/11 02:42:40;;;;;;;1.15;1.05;;;;;;;;;;7391709;19;20137;-86
2023/07/11 02:45:07;;;;;;;1.02;1.00;;;;;;;;;;7390758;19;20129;-86
2023/07/11 02:47:34;;;;;;;1.85;1.75;;;;;;;;;;7390088;19;20162;-86
2023/07/11 02:50:02;;;;;;;1.10;1.10;;;;;;;;;;7391901;19;20477;-86
2023/07/11 02:52:28;;;;;;;1.67;1.58;;;;;;;;;;7392040;19;20129;-86
2023/07/11 02:54:55;;;;;;;1.15;0.90;;;;;;;;;;7389592;19;20872;-87
2023/07/11 02:57:21;;;;;;;1.60;1.50;;;;;;;;;;7391705;19;20149;-87
2023/07/11 02:59:48;;;;;;;0.75;0.75;;;;;;;;;;7392722;19;20494;-87
2023/07/11 03:02:15;;;;;;;1.08;1.08;;;;;;;;;;7391752;19;20140;-87
2023/07/11 03:04:41;;;;;;;5.50;1.08;;;;;;;;;;7390697;19;20141;-87
2023/07/11 03:07:08;;;;;;;0.90;0.90;;;;;;;;;;7391409;19;20148;-87
2023/07/11 03:09:36;;;;;;;1.25;1.17;;;;;;;;;;7392596;19;20137;-87
2023/07/11 03:12:04;;;;;;;1.33;1.23;;;;;;;;;;7391791;19;20478;-87
2023/07/11 03:14:30;;;;;;;1.05;1.05;;;;;;;;;;7392086;19;20148;-87
2023/07/11 03:16:57;;;;;;;0.88;0.88;;;;;;;;;;7389439;19;20995;-86
2023/07/11 03:19:24;;;;;;;1.55;1.15;;;;;;;;;;7391115;19;20145;-86
2023/07/11 03:21:50;;;;;;;1.38;1.27;;;;;;;;;;7393369;19;20129;-87
2023/07/11 03:24:17;;;;;;;1.63;1.52;;;;;;;;;;7390572;19;20467;-87
2023/07/11 03:26:47;;;;;;;1.55;1.45;;;;;;;;;;7389955;19;20152;-86
2023/07/11 03:29:14;;;;;;;1.30;1.30;;;;;;;;;;7390967;19;20200;-86
2023/07/11 03:31:42;;;;;;;1.00;1.00;;;;;;;;;;7391693;19;20479;-87
2023/07/11 03:34:09;;;;;;;1.50;1.40;;;;;;;;;;7389986;19;20649;-86
2023/07/11 03:36:35;;;;;;;1.33;1.23;;;;;;;;;;7388551;19;20168;-86
2023/07/11 03:39:03;;;;;;;2.17;2.00;;;;;;;;;;7390940;19;20144;-87
2023/07/11 03:41:30;;;;;;;1.15;1.13;;;;;;;;;;7391057;19;20610;-87
2023/07/11 03:43:57;;;;;;;1.35;1.25;;;;;;;;;;7390102;19;20136;-86
2023/07/11 03:46:23;;;;;;;1.15;1.02;;;;;;;;;;7388915;19;20168;-86
2023/07/11 03:48:54;;;;;;;1.30;1.30;;;;;;;;;;7385982;19;20137;-86
2023/07/11 03:51:20;;;;;;;1.13;1.10;;;;;;;;;;7389379;19;20121;-86
2023/07/11 03:53:47;;;;;;;1.13;1.02;;;;;;;;;;7388393;19;20137;-87
2023/07/11 03:56:13;;;;;;;1.52;1.30;;;;;;;;;;7387919;19;20164;-85
2023/07/11 03:58:40;;;;;;;0.98;0.98;;;;;;;;;;7388160;19;20137;-86
2023/07/11 04:01:07;;;;;;;1.85;1.33;;;;;;;;;;7388054;19;20137;-85
2023/07/11 04:03:33;;;;;;;1.50;1.40;;;;;;;;;;7386515;19;20137;-86
2023/07/11 04:06:00;;;;;;;1.02;1.02;;;;;;;;;;7388661;19;20621;-86
2023/07/11 04:08:27;;;;;;;1.08;1.08;;;;;;;;;;7386342;19;20139;-87
2023/07/11 04:10:55;;;;;;;1.13;1.02;;;;;;;;;;7390417;19;20129;-86
2023/07/11 04:13:22;;;;;;;2.15;1.35;;;;;;;;;;7388069;19;20151;-86
2023/07/11 04:15:49;;;;;;;1.13;1.13;;;;;;;;;;7390050;19;20133;-87
2023/07/11 04:18:15;;;;;;;1.48;1.33;;;;;;;;;;7393713;19;20141;-87
2023/07/11 04:20:42;;;;;;;1.67;1.58;;;;;;;;;;7397601;19;20157;-87
2023/07/11 04:23:09;;;;;;;1.75;1.17;;;;;;;;;;7390114;19;20732;-87
2023/07/11 04:25:35;;;;;;;1.70;1.25;;;;;;;;;;7390386;19;20140;-87
2023/07/11 04:28:02;;;;;;;1.30;1.27;;;;;;;;;;7390356;19;20601;-87
2023/07/11 04:30:37;;;;;;;1.13;1.08;;;;;;;;;;7391453;19;20491;-87
2023/07/11 04:33:06;;;;;;;1.50;1.08;;;;;;;;;;7393995;19;20667;-87
2023/07/11 04:35:39;;;;;;;1.95;1.35;;;;;;;;;;7426389;19;20125;-86
2023/07/11 04:39:09;;;;;;;1.38;1.27;;;;;;;;;;7428591;19;20157;-86
2023/07/11 04:41:35;;;;;;;3.08;1.85;;;;;;;;;;7393646;19;20143;-87
2023/07/11 04:44:02;;;;;;;1.08;1.08;;;;;;;;;;7393054;19;20668;-87
2023/07/11 04:49:30;;;;;;;0.85;0.85;;;;;;;;;;7394809;19;20136;-88
2023/07/11 04:52:18;;;;;;;0.77;0.77;;;;;;;;;;7392100;19;20137;-88
2023/07/11 04:54:52;;;;;;;1.35;1.25;;;;;;;;;;7395846;19;20140;-88
2023/07/11 04:57:19;;;;;;;1.55;1.05;;;;;;;;;;7390930;19;20205;-88
2023/07/11 04:59:46;;;;;;;1.15;1.15;;;;;;;;;;7395484;19;20133;-88
2023/07/11 05:02:12;;;;;;;1.48;1.38;;;;;;;;;;7393982;19;20151;-89
2023/07/11 05:04:39;;;;;;;1.02;1.02;;;;;;;;;;7397833;19;20618;-88
2023/07/11 05:07:06;;;;;;;0.93;0.93;;;;;;;;;;7397750;19;20181;-89
2023/07/11 05:09:33;;;;;;;0.93;0.93;;;;;;;;;;7404521;19;20572;-86
2023/07/11 05:12:15;;;;;;;1.73;1.63;;;;;;;;;;7403473;19;20551;-86
2023/07/11 05:14:42;;;;;;;1.95;1.42;;;;;;;;;;7402610;19;20213;-85
2023/07/11 05:17:08;;;;;;;3.55;1.50;;;;;;;;;;7402769;19;20156;-86
2023/07/11 05:19:49;;;;;;;0.70;0.70;;;;;;;;;;7400391;19;20502;-85
2023/07/11 05:22:15;;;;;;;1.30;1.30;;;;;;;;;;7405405;19;20473;-86
2023/07/11 05:24:42;;;;;;;0.82;0.82;;;;;;;;;;7405230;19;20141;-85
2023/07/11 05:27:09;;;;;;;1.05;1.05;;;;;;;;;;7396232;19;20173;-85
2023/07/11 05:29:36;;;;;;;2.15;1.73;;;;;;;;;;7388847;19;20145;-85
2023/07/11 05:32:03;;;;;;;1.33;1.23;;;;;;;;;;7390505;19;20133;-85
2023/07/11 05:34:30;;;;;;;1.98;1.60;;;;;;;;;;7386845;19;20133;-84
2023/07/11 05:37:00;;;;;;;1.55;1.45;;;;;;;;;;7389471;19;20141;-85
2023/07/11 05:39:27;;;;;;;1.83;1.27;;;;;;;;;;7392383;19;20149;-85
2023/07/11 05:41:56;;;;;;;1.60;1.50;;;;;;;;;;7388896;19;20626;-85
2023/07/11 05:44:22;;;;;;;1.65;1.42;;;;;;;;;;7394193;19;20141;-85
2023/07/11 05:46:49;;;;;;;1.98;1.88;;;;;;;;;;7393515;19;20562;-85
2023/07/11 05:49:16;;;;;;;1.58;1.33;;;;;;;;;;7389842;19;20610;-87
2023/07/11 05:51:43;;;;;;;1.02;1.02;;;;;;;;;;7391341;19;20125;-89
2023/07/11 05:54:09;;;;;;;1.27;1.17;;;;;;;;;;7394357;19;20477;-88
2023/07/11 05:56:36;;;;;;;1.20;1.20;;;;;;;;;;7388699;19;20145;-87
2023/07/11 05:59:03;;;;;;;1.70;1.55;;;;;;;;;;7391095;19;20489;-88
2023/07/11 06:01:30;;;;;;;0.85;0.85;;;;;;;;;;7390609;19;20129;-87
2023/07/11 06:04:09;;;;;;;1.73;1.63;;;;;;;;;;7391446;19;20173;-87
2023/07/11 06:06:41;;;;;;;0.85;0.85;;;;;;;;;;7389991;19;20167;-88
2023/07/11 06:09:10;;;;;;;1.25;1.25;;;;;;;;;;7393451;19;20129;-87
2023/07/11 06:11:37;;;;;;;1.80;1.70;;;;;;;;;;7397902;19;20133;-87
2023/07/11 06:14:04;;;;;;;1.70;1.63;;;;;;;;;;7397860;19;20133;-87
2023/07/11 06:16:31;;;;;;;3.33;1.30;;;;;;;;;;7397016;19;20621;-88
2023/07/11 06:18:58;;;;;;;1.35;1.33;;;;;;;;;;7402918;19;20165;-91
2023/07/11 06:21:26;;;;;;;1.25;1.25;;;;;;;;;;7403348;19;20145;-92
2023/07/11 06:23:53;;;;;;;2.35;1.77;;;;;;;;;;7405035;19;20147;-92
2023/07/11 06:26:19;;;;;;;1.27;1.27;;;;;;;;;;7400087;19;20185;-91
2023/07/11 06:28:46;;;;;;;1.48;1.38;;;;;;;;;;7396197;19;20134;-88
2023/07/11 06:31:13;;;;;;;1.65;1.55;;;;;;;;;;7400729;19;20135;-89
2023/07/11 06:33:40;;;;;;;1.05;1.05;;;;;;;;;;7408686;19;20157;-95
2023/07/11 06:36:08;;;;;;;2.10;1.98;;;;;;;;;;7424296;19;20499;-94
2023/07/11 06:38:34;;;;;;;1.02;1.02;;;;;;;;;;7423257;19;20129;-94
2023/07/11 06:41:02;;;;;;;2.55;1.60;;;;;;;;;;7424210;19;20460;-93
2023/07/11 06:43:29;;;;;;;1.27;1.17;;;;;;;;;;7422475;19;20137;-90
2023/07/11 06:45:58;;;;;;;1.90;1.10;;;;;;;;;;7420712;19;20153;-94
2023/07/11 06:48:28;;;;;;;1.60;1.50;;;;;;;;;;7423295;19;20171;-92
2023/07/11 06:51:00;;;;;;;2.22;1.08;;;;;;;;;;7423237;19;20133;-93
2023/07/11 06:53:30;;;;;;;0.93;0.93;;;;;;;;;;7422454;19;20129;-93
2023/07/11 06:55:57;;;;;;;1.50;1.40;;;;;;;;;;7422058;19;20129;-94
2023/07/11 06:58:24;;;;;;;1.23;1.23;;;;;;;;;;7419592;19;20126;-93
2023/07/11 07:00:53;;;;;;;0.90;0.90;;;;;;;;;;7415635;19;20129;-91
2023/07/11 07:03:52;;;;;;;1.45;1.35;;;;;;;;;;7409734;19;20145;-90
2023/07/11 07:06:19;;;;;;;1.80;1.55;;;;;;;;;;7413999;19;20145;-90
2023/07/11 07:08:46;;;;;;;1.83;1.73;;;;;;;;;;7411737;19;20141;-91
2023/07/11 07:11:13;;;;;;;2.25;1.83;;;;;;;;;;7415310;19;20125;-91
2023/07/11 07:13:40;;;;;;;1.40;1.35;;;;;;;;;;7412206;19;20133;-91
2023/07/11 07:16:28;;;;;;;1.42;1.35;;;;;;;;;;7412901;19;20161;-92
2023/07/11 07:18:55;;;;;;;2.15;1.95;;;;;;;;;;7412354;19;20151;-92
2023/07/11 07:21:28;;;;;;;1.30;1.20;;;;;;;;;;7413019;19;20150;-91
2023/07/11 07:24:26;;;;;;;1.58;1.48;;;;;;;;;;7410524;19;20620;-90
2023/07/11 07:26:51;;;;;;;1.48;1.42;;;;;;;;;;7411203;19;20570;-89
2023/07/11 07:29:23;;;;;;;1.42;1.35;;;;;;;;;;7412474;19;20149;-90
2023/07/11 07:31:53;;;;;;;1.55;1.45;;;;;;;;;;7409571;19;20136;-90
2023/07/11 07:34:20;;;;;;;1.45;1.35;;;;;;;;;;7405960;19;20149;-91
2023/07/11 07:36:47;;;;;;;1.20;1.20;;;;;;;;;;7392934;19;20163;-90
2023/07/11 07:39:17;;;;;;;1.33;1.23;;;;;;;;;;7394721;19;20499;-90
2023/07/11 07:41:47;;;;;;;0.98;0.98;;;;;;;;;;7391952;19;20144;-90
2023/07/11 07:44:20;;;;;;;1.70;1.60;;;;;;;;;;7393217;19;20141;-89
2023/07/11 07:46:47;;;;;;;1.75;1.42;;;;;;;;;;7394198;19;20701;-90
2023/07/11 07:49:30;;;;;;;1.70;1.60;;;;;;;;;;7392847;19;20643;-90
2023/07/11 07:52:17;;;;;;;2.05;1.15;;;;;;;;;;7397199;19;20511;-89
2023/07/11 07:54:44;;;;;;;2.22;2.13;;;;;;;;;;7401749;19;20143;-89
2023/07/11 07:57:10;;;;;;;1.52;1.42;;;;;;;;;;7400159;19;20170;-88
2023/07/11 07:59:37;;;;;;;1.38;1.27;;;;;;;;;;7398854;19;20136;-89
2023/07/11 08:02:04;;;;;;;1.30;1.30;;;;;;;;;;7404293;19;20480;-89
2023/07/11 08:04:31;;;;;;;1.02;1.02;;;;;;;;;;7415367;19;20140;-88
2023/07/11 08:06:58;;;;;;;1.42;1.17;;;;;;;;;;7428405;19;20414;-89
2023/07/11 08:09:25;;;;;;;2.25;1.98;;;;;;;;;;7429403;19;20185;-90
2023/07/11 08:11:52;;;;;;;1.15;1.15;;;;;;;;;;7398298;19;20131;-90
2023/07/11 12:43:51;;;;;;;1.77;1.67;;;;;;;;;;7403716;19;20126;-90
2023/07/11 12:46:28;;;;;;;1.45;1.38;;;;;;;;;;7400079;19;20189;-90
2023/07/11 12:48:55;;;;;;;2.42;1.58;;;;;;;;;;7399677;19;20136;-90
2023/07/11 12:51:41;;;;;;;2.30;1.90;;;;;;;;;;7399502;19;20141;-90
2023/07/11 12:54:17;;;;;;;1.38;1.27;;;;;;;;;;7401593;19;20470;-90
2023/07/11 12:56:48;;;;;;;1.48;1.38;;;;;;;;;;7399218;19;20490;-89
2023/07/11 12:59:29;;;;;;;1.30;1.30;;;;;;;;;;7403156;19;20501;-90
2023/07/11 13:02:01;;;;;;;2.03;1.92;;;;;;;;;;7401519;19;20140;-88
2023/07/11 13:04:37;;;;;;;1.60;1.50;;;;;;;;;;7401757;19;20133;-90
2023/07/11 13:07:11;;;;;;;6.28;1.35;;;;;;;;;;7399627;19;20212;-88
2023/07/11 13:09:41;;;;;;;1.55;1.45;;;;;;;;;;7396703;19;20195;-90
2023/07/11 13:12:10;;;;;;;1.65;1.52;;;;;;;;;;7394582;19;20160;-92
2023/07/11 13:14:37;;;;;;;1.30;1.20;;;;;;;;;;7397328;19;20155;-92
2023/07/11 13:17:04;;;;;;;1.30;1.27;;;;;;;;;;7395169;19;20152;-90
2023/07/11 13:19:30;;;;;;;0.93;0.70;;;;;;;;;;7395731;19;20133;-92
2023/07/11 13:21:57;;;;;;;0.70;0.70;;;;;;;;;;7402662;19;20137;-91
2023/07/11 13:24:28;;;;;;;1.58;1.48;;;;;;;;;;7401703;19;20140;-90
2023/07/11 13:27:03;;;;;;;1.88;1.77;;;;;;;;;;7398426;19;20168;-90
2023/07/11 13:29:40;;;;;;;1.63;1.23;;;;;;;;;;7403776;19;20141;-92
2023/07/11 13:32:16;;;;;;;9.73;1.65;;;;;;;;;;7396789;19;20636;-91
2023/07/11 13:34:50;;;;;;;1.05;1.00;;;;;;;;;;7400170;19;20132;-91
2023/07/11 13:37:24;;;;;;;1.40;1.30;;;;;;;;;;7396479;19;20161;-91
2023/07/11 13:39:51;;;;;;;2.47;1.70;;;;;;;;;;7398033;19;20415;-90
2023/07/11 13:42:22;;;;;;;1.38;1.05;;;;;;;;;;7399669;19;20140;-90
2023/07/11 13:44:51;;;;;;;1.83;1.73;;;;;;;;;;7394983;19;20133;-89
2023/07/11 13:47:24;;;;;;;1.83;1.73;;;;;;;;;;7393930;19;20788;-91
2023/07/11 13:50:16;;;;;;;1.65;1.55;;;;;;;;;;7395167;19;20708;-91
2023/07/11 13:53:10;;;;;;;1.93;1.83;;;;;;;;;;7396011;19;20902;-90
2023/07/11 13:55:50;;;;;;;2.15;2.05;;;;;;;;;;7394064;19;20459;-92
2023/07/11 13:58:18;;;;;;;2.65;1.75;;;;;;;;;;7393166;19;20353;-91
2023/07/11 14:00:51;;;;;;;3.00;1.85;;;;;;;;;;7394809;19;20348;-91
2023/07/11 14:03:21;;;;;;;1.02;1.02;;;;;;;;;;7396199;19;20140;-90
2023/07/11 14:05:50;;;;;;;1.13;1.08;;;;;;;;;;7397239;19;20137;-90
2023/07/11 14:08:21;;;;;;;1.40;1.30;;;;;;;;;;7394585;19;20144;-89
2023/07/11 14:10:48;;;;;;;1.30;1.23;;;;;;;;;;7389456;19;20340;-91
2023/07/11 14:13:26;;;;;;;1.83;1.73;;;;;;;;;;7390891;19;20353;-90
2023/07/11 14:15:55;;;;;;;1.05;1.05;;;;;;;;;;7395046;19;20145;-92
2023/07/11 14:18:30;;;;;;;1.48;1.38;;;;;;;;;;7402114;19;20145;-92
2023/07/11 14:21:00;;;;;;;1.30;1.25;;;;;;;;;;7398104;19;20151;-91
2023/07/11 14:23:28;;;;;;;1.83;1.73;;;;;;;;;;7398415;19;20457;-92
2023/07/11 14:25:55;;;;;;;1.48;1.38;;;;;;;;;;7401835;19;20137;-91
2023/07/11 14:28:22;;;;;;;0.93;0.93;;;;;;;;;;7401640;19;20137;-90
2023/07/11 14:30:54;;;;;;;0.80;0.80;;;;;;;;;;7395504;19;20133;-92
2023/07/11 14:33:23;;;;;;;3.45;1.45;;;;;;;;;;7389984;19;20144;-90
2023/07/11 14:35:50;;;;;;;0.85;0.85;;;;;;;;;;7400076;19;20213;-91
2023/07/11 14:38:19;;;;;;;1.67;1.58;;;;;;;;;;7395104;19;20160;-91
2023/07/11 14:40:46;;;;;;;1.13;1.13;;;;;;;;;;7390761;19;20137;-90
2023/07/11 14:43:17;;;;;;;1.08;1.08;;;;;;;;;;7394213;19;20152;-89
2023/07/11 14:45:44;;;;;;;1.85;1.05;;;;;;;;;;7393843;19;20169;-90
2023/07/11 14:48:13;;;;;;;1.00;1.00;;;;;;;;;;7392665;19;20545;-89
2023/07/11 14:50:40;;;;;;;1.67;1.58;;;;;;;;;;7395486;19;20133;-91
2023/07/11 14:53:23;;;;;;;1.15;1.13;;;;;;;;;;7394994;19;20129;-88
2023/07/11 14:55:50;;;;;;;1.10;1.10;;;;;;;;;;7420605;19;20129;-86
2023/07/11 14:58:20;;;;;;;0.98;0.98;;;;;;;;;;7423004;19;20136;-86
2023/07/11 15:00:46;;;;;;;1.77;1.67;;;;;;;;;;7399533;19;20133;-89
2023/07/11 15:03:27;;;;;;;1.13;1.13;;;;;;;;;;7392475;19;20150;-88
2023/07/11 15:06:14;;;;;;;0.95;0.95;;;;;;;;;;7392700;19;20188;-92
2023/07/11 15:08:43;;;;;;;3.47;1.23;;;;;;;;;;7396835;19;20212;-91
2023/07/11 15:11:25;;;;;;;1.48;1.42;;;;;;;;;;7396559;19;20133;-91
2023/07/11 15:13:54;;;;;;;1.05;1.00;;;;;;;;;;7400372;19;20187;-93
2023/07/11 15:16:24;;;;;;;2.75;1.75;;;;;;;;;;7396692;19;20617;-90
2023/07/11 15:18:51;;;;;;;1.90;1.80;;;;;;;;;;7399181;19;20137;-89
2023/07/11 15:21:17;;;;;;;13.63;1.70;;;;;;;;;;7396838;19;20172;-90
2023/07/11 15:23:45;;;;;;;1.00;0.88;;;;;;;;;;7399279;19;20137;-91
2023/07/11 15:26:12;;;;;;;1.25;1.17;;;;;;;;;;7397538;19;20646;-89
2023/07/11 15:28:38;;;;;;;0.70;0.70;;;;;;;;;;7399855;19;20513;-90
2023/07/11 15:31:11;;;;;;;3.90;1.90;;;;;;;;;;7399187;19;20133;-89
2023/07/11 15:33:41;;;;;;;3.10;1.48;;;;;;;;;;7398507;19;20133;-89
2023/07/11 15:36:08;;;;;;;0.80;0.80;;;;;;;;;;7398478;19;20164;-91
2023/07/11 15:38:35;;;;;;;0.80;0.80;;;;;;;;;;7397576;19;20200;-90
2023/07/11 15:41:06;;;;;;;0.90;0.90;;;;;;;;;;7393946;19;20145;-89
2023/07/11 15:43:35;;;;;;;1.65;1.55;;;;;;;;;;7396118;19;20129;-91
2023/07/11 15:46:02;;;;;;;1.58;1.30;;;;;;;;;;7397402;19;20133;-89
2023/07/11 15:48:30;;;;;;;1.60;1.50;;;;;;;;;;7397249;19;20138;-88
2023/07/11 15:50:56;;;;;;;1.02;1.02;;;;;;;;;;7393585;19;20144;-88
2023/07/11 15:53:24;;;;;;;1.17;1.15;;;;;;;;;;7394500;19;20627;-88
2023/07/11 15:55:51;;;;;;;0.85;0.85;;;;;;;;;;7393725;19;20160;-90
2023/07/11 15:58:21;;;;;;;1.00;1.00;;;;;;;;;;7391462;19;20424;-89
2023/07/11 16:00:48;;;;;;;0.88;0.88;;;;;;;;;;7394320;19;20364;-89
2023/07/11 16:03:16;;;;;;;1.30;1.20;;;;;;;;;;7393998;19;20332;-88
2023/07/11 16:05:45;;;;;;;1.20;1.20;;;;;;;;;;7391518;19;20352;-90
2023/07/11 16:08:17;;;;;;;1.20;1.10;;;;;;;;;;7390982;19;20768;-89
2023/07/11 16:10:46;;;;;;;0.97;0.97;;;;;;;;;;7392214;19;20428;-90
2023/07/11 16:13:21;;;;;;;4.47;1.30;;;;;;;;;;7393552;19;20359;-89
2023/07/11 16:15:49;;;;;;;1.40;1.30;;;;;;;;;;7400713;19;20375;-89
2023/07/11 16:18:19;;;;;;;1.40;1.30;;;;;;;;;;7393873;19;20356;-91
2023/07/11 16:20:50;;;;;;;1.30;1.00;;;;;;;;;;7395439;19;20356;-90
2023/07/11 16:23:21;;;;;;;1.92;1.48;;;;;;;;;;7400510;19;20348;-89
2023/07/11 16:25:48;;;;;;;1.65;1.05;;;;;;;;;;7396124;19;20474;-88
2023/07/11 16:28:22;;;;;;;1.50;1.40;;;;;;;;;;7396972;19;20364;-89
2023/07/11 16:30:49;;;;;;;2.08;1.70;;;;;;;;;;7398498;19;20432;-89
2023/07/11 16:33:19;;;;;;;1.73;1.63;;;;;;;;;;7394112;19;20433;-91
2023/07/11 16:35:57;;;;;;;7.33;1.40;;;;;;;;;;7395431;19;20467;-91
2023/07/11 16:38:31;;;;;;;2.05;1.90;;;;;;;;;;7394721;19;20700;-90
2023/07/11 16:40:59;;;;;;;1.17;0.82;;;;;;;;;;7393553;19;20681;-91
2023/07/11 16:43:28;;;;;;;1.55;1.08;;;;;;;;;;7398890;19;20149;-90
2023/07/11 16:45:57;;;;;;;1.35;1.25;;;;;;;;;;7396330;19;20506;-89
2023/07/11 16:48:29;;;;;;;1.25;1.15;;;;;;;;;;7402815;19;20156;-89
2023/07/11 16:50:59;;;;;;;1.38;1.27;;;;;;;;;;7397057;19;20893;-90
2023/07/11 16:53:28;;;;;;;1.67;1.33;;;;;;;;;;7398848;19;20363;-89
2023/07/11 16:55:59;;;;;;;1.30;1.20;;;;;;;;;;7398954;19;20343;-89
2023/07/11 16:58:26;;;;;;;1.20;1.20;;;;;;;;;;7397948;19;20349;-89
2023/07/11 17:00:54;;;;;;;1.35;1.30;;;;;;;;;;7397612;19;20362;-90
2023/07/11 17:06:46;;;;;;;1.10;1.10;;;;;;;;;;7398664;19;20348;-90
2023/07/11 17:09:20;;;;;;;2.33;1.73;;;;;;;;;;7395501;19;20349;-89
2023/07/11 17:11:50;;;;;;;2.80;2.05;;;;;;;;;;7397184;19;20387;-89
2023/07/11 17:14:18;;;;;;;1.10;1.00;;;;;;;;;;7393854;19;20341;-91
2023/07/11 17:16:53;;;;;;;1.65;1.55;;;;;;;;;;7396602;19;20363;-90
2023/07/11 17:19:26;;;;;;;1.75;1.52;;;;;;;;;;7405298;19;20888;-90
2023/07/11 17:21:53;;;;;;;1.50;1.40;;;;;;;;;;7397430;19;20332;-90
2023/07/11 17:24:22;;;;;;;1.25;1.15;;;;;;;;;;7396269;19;20384;-90
2023/07/11 17:26:52;;;;;;;1.17;1.17;;;;;;;;;;7394733;19;20353;-90
2023/07/11 17:29:18;;;;;;;2.90;1.63;;;;;;;;;;7397081;19;20372;-89
2023/07/11 17:31:45;;;;;;;1.30;1.20;;;;;;;;;;7392273;19;20346;-89
2023/07/11 17:34:16;;;;;;;1.25;1.15;;;;;;;;;;7393725;19;20352;-89
2023/07/11 17:36:45;;;;;;;2.05;1.52;;;;;;;;;;7392608;19;20429;-90
2023/07/11 17:39:14;;;;;;;3.35;1.25;;;;;;;;;;7395605;19;20455;-89
2023/07/11 17:41:42;;;;;;;1.65;1.55;;;;;;;;;;7392437;19;20368;-89
2023/07/11 17:44:11;;;;;;;1.42;1.33;;;;;;;;;;7392998;19;20701;-90
2023/07/11 17:46:51;;;;;;;1.53;1.43;;;;;;;;;;7396418;19;20340;-90
2023/07/11 17:49:25;;;;;;;1.23;1.13;;;;;;;;;;7397751;19;20343;-90
2023/07/11 17:51:52;;;;;;;1.50;1.40;;;;;;;;;;7401016;19;20349;-92
2023/07/11 17:54:19;;;;;;;1.15;1.10;;;;;;;;;;7396175;19;20341;-90
2023/07/11 17:56:46;;;;;;;1.67;1.40;;;;;;;;;;7398263;19;20364;-92
2023/07/11 17:59:24;;;;;;;1.33;1.27;;;;;;;;;;7391799;19;21033;-91
2023/07/11 18:01:52;;;;;;;1.15;1.05;;;;;;;;;;7399587;19;20359;-90
2023/07/11 18:04:19;;;;;;;0.90;0.90;;;;;;;;;;7398991;19;20574;-91
2023/07/11 18:06:46;;;;;;;1.60;1.33;;;;;;;;;;7394553;19;20679;-89
2023/07/11 18:09:13;;;;;;;1.25;1.15;;;;;;;;;;7403024;19;20360;-90
2023/07/11 18:11:39;;;;;;;0.90;0.90;;;;;;;;;;7422257;19;20402;-92
2023/07/11 18:14:06;;;;;;;1.35;1.35;;;;;;;;;;7423722;19;20352;-94
2023/07/11 18:16:32;;;;;;;0.85;0.85;;;;;;;;;;7391813;19;20436;-89
2023/07/11 18:18:59;;;;;;;0.97;0.97;;;;;;;;;;7391594;19;20344;-89
2023/07/11 18:21:26;;;;;;;1.00;1.00;;;;;;;;;;7390200;19;20328;-88
2023/07/11 18:23:53;;;;;;;1.25;1.15;;;;;;;;;;7391836;19;20713;-89
2023/07/11 18:26:20;;;;;;;0.93;0.93;;;;;;;;;;7392363;19;20886;-89
2023/07/11 18:28:48;;;;;;;1.20;1.10;;;;;;;;;;7396196;19;20360;-90
2023/07/11 18:31:18;;;;;;;0.93;0.93;;;;;;;;;;7396163;19;20368;-89
2023/07/11 18:33:49;;;;;;;0.82;0.82;;;;;;;;;;7395059;19;20359;-89
2023/07/11 18:36:23;;;;;;;1.33;1.23;;;;;;;;;;7391845;19;20727;-89
2023/07/11 18:38:50;;;;;;;0.82;0.82;;;;;;;;;;7393427;19;20356;-89
2023/07/11 18:41:17;;;;;;;1.35;1.25;;;;;;;;;;7396683;19;20364;-89
2023/07/11 18:43:44;;;;;;;2.00;1.00;;;;;;;;;;7395652;19;20938;-88
2023/07/11 18:48:52;;;;;;;1.13;1.02;;;;;;;;;;7395754;19;20341;-88
2023/07/11 18:51:19;;;;;;;1.15;1.08;;;;;;;;;;7394188;19;20713;-88
2023/07/11 18:53:45;;;;;;;0.93;0.93;;;;;;;;;;7392332;19;20884;-87
2023/07/11 18:56:20;;;;;;;1.00;0.70;;;;;;;;;;7392926;19;20333;-88
2023/07/11 18:58:47;;;;;;;0.80;0.80;;;;;;;;;;7396719;19;20767;-88
2023/07/11 19:01:13;;;;;;;0.90;0.85;;;;;;;;;;7393214;19;20693;-87
2023/07/11 19:03:40;;;;;;;0.98;0.98;;;;;;;;;;7393901;19;20337;-88
2023/07/11 19:06:13;;;;;;;1.13;1.05;;;;;;;;;;7386144;19;20376;-88
2023/07/11 19:08:40;;;;;;;1.73;1.25;;;;;;;;;;7394292;19;20350;-88
2023/07/11 19:11:12;;;;;;;0.85;0.85;;;;;;;;;;7392023;19;20359;-87
2023/07/11 19:13:40;;;;;;;1.45;1.35;;;;;;;;;;7390027;19;20365;-88
2023/07/11 19:16:19;;;;;;;2.17;1.30;;;;;;;;;;7391105;19;20364;-88
2023/07/11 19:18:46;;;;;;;1.65;1.55;;;;;;;;;;7394183;19;20381;-87
2023/07/11 19:21:13;;;;;;;1.10;1.10;;;;;;;;;;7394729;19;20344;-89
2023/07/11 19:23:46;;;;;;;1.98;1.88;;;;;;;;;;7390888;19;20983;-89
2023/07/11 19:26:17;;;;;;;1.90;1.80;;;;;;;;;;7387506;19;20887;-89
2023/07/11 19:28:44;;;;;;;1.52;1.42;;;;;;;;;;7392620;19;20363;-89
2023/07/11 19:31:13;;;;;;;1.25;1.23;;;;;;;;;;7389445;19;20368;-87
2023/07/11 19:33:40;;;;;;;1.57;1.47;;;;;;;;;;7383793;19;20344;-92